createdAt,value
2022-09-10T00:01:38.014Z,97450.66
2022-09-10T00:04:12.654Z,97451.31
2022-09-10T00:06:41.219Z,97449.84
2022-09-10T00:09:11.064Z,97443.41
2022-09-10T00:11:41.198Z,97441.09
2022-09-10T00:14:15.203Z,97435.69
2022-09-10T00:16:43.101Z,97434.06
2022-09-10T00:19:11.039Z,97426.63
2022-09-10T00:21:38.856Z,97441.94
2022-09-10T00:24:06.912Z,97439.25
2022-09-10T00:26:39.395Z,97442.75
2022-09-10T00:29:15.918Z,97437.78
2022-09-10T00:31:44.954Z,97444.41
2022-09-10T00:34:14.308Z,97447.09
2022-09-10T00:36:44.058Z,97462.44
2022-09-10T00:39:16.803Z,97460.22
2022-09-10T00:41:48.239Z,97450.25
2022-09-10T00:44:39.518Z,97440.53
2022-09-10T00:47:38.356Z,97441.16
2022-09-10T00:50:22.238Z,97434.69
2022-09-10T00:52:56.255Z,97444.06
2022-09-10T00:55:24.218Z,97443.66
2022-09-10T00:57:58.786Z,97454.22
2022-09-10T01:00:26.884Z,97457.94
2022-09-10T01:02:55.547Z,97450.88
2022-09-10T01:05:24.281Z,97456.72
2022-09-10T01:07:53.139Z,97454.84
2022-09-10T01:10:34.875Z,97453.81
2022-09-10T01:13:39.923Z,97449.88
2022-09-10T01:16:48.497Z,97464.63
2022-09-10T01:19:56.261Z,97474.78
2022-09-10T01:23:06.421Z,97467.78
2022-09-10T01:26:31.706Z,97458.66
2022-09-10T01:29:30.097Z,97448.75
2022-09-10T01:32:27.411Z,97445.41
2022-09-10T01:35:37.034Z,97457.06
2022-09-10T01:38:15.421Z,97449.66
2022-09-10T01:40:44.220Z,97448.41
2022-09-10T01:43:16.488Z,97447.19
2022-09-10T01:46:21.735Z,97442.81
2022-09-10T01:49:29.189Z,97438.03
2022-09-10T01:52:22.256Z,97436.41
2022-09-10T01:55:06.137Z,97436.97
2022-09-10T01:57:57.618Z,97429.75
2022-09-10T02:00:34.675Z,97429.97
2022-09-10T02:03:11.397Z,97432.25
2022-09-10T02:05:42.192Z,97437.03
2022-09-10T02:08:28.449Z,97434.13
2022-09-10T02:11:06.354Z,97427.06
2022-09-10T02:13:38.256Z,97424.59
2022-09-10T02:16:34.404Z,97423.16
2022-09-10T02:19:04.055Z,97424.78
2022-09-10T02:21:33.529Z,97421.69
2022-09-10T02:24:10.065Z,97430.56
2022-09-10T02:26:42.156Z,97433.28
2022-09-10T02:29:13.849Z,97431.63
2022-09-10T02:31:43.924Z,97433.47
2022-09-10T02:34:16.101Z,97427.88
2022-09-10T02:36:47.142Z,97431.44
2022-09-10T02:39:15.859Z,97431.63
2022-09-10T02:41:43.675Z,97428.50
2022-09-10T02:44:11.477Z,97433.47
2022-09-10T02:46:39.452Z,97424.94
2022-09-10T02:49:07.347Z,97419.56
2022-09-10T02:51:38.914Z,97417.69
2022-09-10T02:54:08.492Z,97422.25
2022-09-10T02:56:36.531Z,97416.25
2022-09-10T02:59:05.172Z,97418.31
2022-09-10T03:01:34.869Z,97411.91
2022-09-10T03:04:05.867Z,97415.88
2022-09-10T03:06:33.734Z,97417.72
2022-09-10T03:09:02.221Z,97406.94
2022-09-10T03:11:31.301Z,97405.50
2022-09-10T03:13:59.783Z,97408.41
2022-09-10T03:16:29.784Z,97416.09
2022-09-10T03:18:57.673Z,97417.97
2022-09-10T03:21:25.453Z,97423.97
2022-09-10T03:23:56.806Z,97418.94
2022-09-10T03:26:28.007Z,97418.13
2022-09-10T03:28:56.259Z,97417.50
2022-09-10T03:31:31.057Z,97418.72
2022-09-10T03:33:59.734Z,97411.25
2022-09-10T03:36:32.113Z,97406.94
2022-09-10T03:39:00.817Z,97417.09
2022-09-10T03:41:32.044Z,97413.78
2022-09-10T03:44:00.691Z,97420.59
2022-09-10T03:46:28.525Z,97420.41
2022-09-10T03:49:02.456Z,97411.72
2022-09-10T03:51:31.471Z,97422.03
2022-09-10T03:53:59.825Z,97416.44
2022-09-10T03:56:28.543Z,97414.81
2022-09-10T03:58:57.428Z,97411.88
2022-09-10T04:01:27.989Z,97415.81
2022-09-10T04:03:57.043Z,97407.13
2022-09-10T04:06:26.797Z,97413.94
2022-09-10T04:08:56.195Z,97415.81
2022-09-10T04:11:27.636Z,97411.03
2022-09-10T04:13:57.137Z,97419.75
2022-09-10T04:16:25.846Z,97421.22
2022-09-10T04:18:54.327Z,97420.19
2022-09-10T04:21:23.267Z,97419.56
2022-09-10T04:23:56.577Z,97420.22
2022-09-10T04:26:26.341Z,97419.38
2022-09-10T04:28:54.204Z,97417.50
2022-09-10T04:31:22.620Z,97427.03
2022-09-10T04:33:53.715Z,97420.66
2022-09-10T04:36:25.788Z,97419.81
2022-09-10T04:38:59.085Z,97423.16
2022-09-10T04:41:27.347Z,97424.59
2022-09-10T04:43:55.341Z,97431.25
2022-09-10T04:46:24.372Z,97433.31
2022-09-10T04:48:54.297Z,97433.94
2022-09-10T04:51:25.014Z,97428.75
2022-09-10T04:53:55.086Z,97441.34
2022-09-10T04:56:27.723Z,97440.72
2022-09-10T04:58:55.748Z,97445.03
2022-09-10T05:01:31.349Z,97441.91
2022-09-10T05:03:59.103Z,97444.81
2022-09-10T05:06:27.021Z,97447.50
2022-09-10T05:08:55.875Z,97440.47
2022-09-10T05:11:23.827Z,97441.50
2022-09-10T05:13:52.333Z,97445.88
2022-09-10T05:16:23.308Z,97449.59
2022-09-10T05:18:51.072Z,97455.03
2022-09-10T05:21:19.806Z,97448.81
2022-09-10T05:23:48.079Z,97451.25
2022-09-10T05:26:15.942Z,97448.56
2022-09-10T05:28:43.727Z,97456.66
2022-09-10T05:31:16.631Z,97448.16
2022-09-10T05:33:46.418Z,97455.41
2022-09-10T05:36:14.868Z,97446.31
2022-09-10T05:38:46.551Z,97458.97
2022-09-10T05:41:16.257Z,97456.28
2022-09-10T05:43:48.583Z,97446.94
2022-09-10T05:46:17.154Z,97442.97
2022-09-10T05:48:49.116Z,97438.81
2022-09-10T05:51:18.694Z,97438.81
2022-09-10T05:53:47.861Z,97441.28
2022-09-10T05:56:15.852Z,97438.00
2022-09-10T05:58:45.293Z,97441.50
2022-09-10T06:01:15.468Z,97446.28
2022-09-10T06:03:44.671Z,97449.16
2022-09-10T06:06:12.522Z,97444.59
2022-09-10T06:08:44.592Z,97456.44
2022-09-10T06:11:23.223Z,97453.94
2022-09-10T06:13:51.350Z,97453.94
2022-09-10T06:16:20.324Z,97457.88
2022-09-10T06:18:49.380Z,97463.66
2022-09-10T06:21:26.154Z,97467.56
2022-09-10T06:23:56.201Z,97460.50
2022-09-10T06:26:26.729Z,97470.44
2022-09-10T06:28:58.875Z,97467.31
2022-09-10T06:31:27.221Z,97477.66
2022-09-10T06:33:55.783Z,97472.50
2022-09-10T06:36:28.711Z,97465.84
2022-09-10T06:38:58.166Z,97466.69
2022-09-10T06:41:27.077Z,97466.03
2022-09-10T06:44:12.717Z,97469.53
2022-09-10T06:49:40.674Z,97471.13
2022-09-10T06:52:12.281Z,97478.53
2022-09-10T06:54:40.323Z,97473.13
2022-09-10T06:57:34.006Z,97478.03
2022-09-10T07:00:04.739Z,97489.22
2022-09-10T07:02:32.719Z,97494.41
2022-09-10T07:05:00.884Z,97495.88
2022-09-10T07:07:32.464Z,97500.88
2022-09-10T07:10:01.437Z,97495.47
2022-09-10T07:12:29.871Z,97498.72
2022-09-10T07:14:57.630Z,97496.00
2022-09-10T07:17:31.151Z,97504.00
2022-09-10T07:20:00.838Z,97508.69
2022-09-10T07:22:39.345Z,97501.75
2022-09-10T07:25:10.555Z,97504.78
2022-09-10T07:27:53.889Z,97507.19
2022-09-10T07:30:22.404Z,97516.94
2022-09-10T07:32:51.627Z,97515.59
2022-09-10T07:35:23.985Z,97524.09
2022-09-10T07:37:51.825Z,97528.63
2022-09-10T07:40:23.456Z,97531.50
2022-09-10T07:42:52.526Z,97538.19
2022-09-10T07:45:21.387Z,97531.94
2022-09-10T07:47:50.007Z,97531.94
2022-09-10T07:50:19.304Z,97533.13
2022-09-10T07:52:51.346Z,97542.69
2022-09-10T07:55:21.293Z,97548.91
2022-09-10T07:57:49.389Z,97543.69
2022-09-10T08:00:18.510Z,97545.69
2022-09-10T08:02:54.083Z,97548.84
2022-09-10T08:05:23.659Z,97551.53
2022-09-10T08:07:57.189Z,97557.63
2022-09-10T08:10:27.592Z,97560.63
2022-09-10T08:12:58.885Z,97559.28
2022-09-10T08:15:26.940Z,97561.22
2022-09-10T08:17:55.743Z,97557.84
2022-09-10T08:20:25.207Z,97554.63
2022-09-10T08:22:53.805Z,97553.44
2022-09-10T08:25:21.722Z,97560.66
2022-09-10T08:27:49.979Z,97554.63
2022-09-10T08:30:17.810Z,97548.69
2022-09-10T08:32:46.195Z,97555.91
2022-09-10T08:35:14.977Z,97558.69
2022-09-10T08:37:43.752Z,97563.13
2022-09-10T08:40:13.434Z,97559.22
2022-09-10T08:42:50.270Z,97564.13
2022-09-10T08:45:33.785Z,97557.78
2022-09-10T08:48:19.244Z,97561.16
2022-09-10T08:51:01.796Z,97560.50
2022-09-10T08:53:51.450Z,97558.47
2022-09-10T08:56:27.881Z,97564.75
2022-09-10T08:59:06.931Z,97566.56
2022-09-10T09:01:53.259Z,97573.78
2022-09-10T09:05:10.010Z,97575.59
2022-09-10T09:07:39.772Z,97571.16
2022-09-10T09:10:24.965Z,97569.44
2022-09-10T09:13:18.311Z,97571.69
2022-09-10T09:16:06.534Z,97571.16
2022-09-10T09:19:38.215Z,97572.59
2022-09-10T09:22:31.505Z,97574.38
2022-09-10T09:25:10.007Z,97567.63
2022-09-10T09:27:41.679Z,97574.53
2022-09-10T09:30:35.736Z,97576.78
2022-09-10T09:33:23.138Z,97570.47
2022-09-10T09:36:04.740Z,97578.88
2022-09-10T09:38:44.031Z,97577.94
2022-09-10T09:41:36.503Z,97579.34
2022-09-10T09:44:29.823Z,97575.44
2022-09-10T09:46:57.775Z,97577.63
2022-09-10T09:49:26.213Z,97577.16
2022-09-10T09:51:57.674Z,97579.19
2022-09-10T09:57:20.652Z,97582.34
2022-09-10T09:59:51.776Z,97581.06
2022-09-10T10:02:21.971Z,97584.69
2022-09-10T10:05:24.683Z,97577.31
2022-09-10T10:07:52.775Z,97581.97
2022-09-10T10:10:25.703Z,97571.31
2022-09-10T10:12:54.601Z,97570.34
2022-09-10T10:15:41.072Z,97577.31
2022-09-10T10:18:38.244Z,97573.03
2022-09-10T10:21:34.048Z,97583.84
2022-09-10T10:24:02.026Z,97580.03
2022-09-10T10:26:37.106Z,97586.06
2022-09-10T10:29:19.622Z,97579.81
2022-09-10T10:31:50.086Z,97571.41
2022-09-10T10:34:53.211Z,97567.91
2022-09-10T10:38:03.354Z,97567.91
2022-09-10T10:40:43.457Z,97560.50
2022-09-10T10:43:20.035Z,97556.97
2022-09-10T10:46:20.816Z,97557.38
2022-09-10T10:49:27.836Z,97545.47
2022-09-10T10:52:41.854Z,97544.38
2022-09-10T10:55:20.893Z,97543.63
2022-09-10T10:58:39.335Z,97535.66
2022-09-10T11:01:24.702Z,97538.19
2022-09-10T11:04:30.993Z,97535.34
2022-09-10T11:07:34.834Z,97540.78
2022-09-10T11:10:36.948Z,97536.06
2022-09-10T11:13:22.241Z,97550.00
2022-09-10T11:16:24.110Z,97532.75
2022-09-10T11:19:01.410Z,97531.41
2022-09-10T11:21:42.673Z,97540.13
2022-09-10T11:24:23.309Z,97526.00
2022-09-10T11:27:29.863Z,97525.97
2022-09-10T11:30:06.994Z,97521.53
2022-09-10T11:32:55.422Z,97532.81
2022-09-10T11:35:41.146Z,97533.75
2022-09-10T11:38:24.771Z,97533.19
2022-09-10T11:40:58.803Z,97533.25
2022-09-10T11:43:45.502Z,97533.59
2022-09-10T11:46:32.328Z,97536.66
2022-09-10T11:49:23.029Z,97522.53
2022-09-10T11:51:51.399Z,97520.03
2022-09-10T11:54:34.535Z,97522.47
2022-09-10T11:57:09.859Z,97524.25
2022-09-10T12:00:17.508Z,97528.66
2022-09-10T12:03:24.295Z,97517.22
2022-09-10T12:06:08.522Z,97525.91
2022-09-10T12:09:06.078Z,97511.69
2022-09-10T12:12:07.517Z,97515.09
2022-09-10T12:14:41.025Z,97531.84
2022-09-10T12:17:24.548Z,97531.69
2022-09-10T12:19:55.875Z,97524.34
2022-09-10T12:22:34.214Z,97521.69
2022-09-10T12:25:08.770Z,97522.53
2022-09-10T12:28:00.205Z,97522.63
2022-09-10T12:30:28.532Z,97512.16
2022-09-10T12:33:12.748Z,97507.91
2022-09-10T12:35:49.757Z,97516.75
2022-09-10T12:39:20.510Z,97516.59
2022-09-10T12:41:48.729Z,97506.94
2022-09-10T12:44:34.780Z,97511.78
2022-09-10T12:47:17.238Z,97516.72
2022-09-10T12:50:06.936Z,97504.72
2022-09-10T12:53:09.592Z,97510.25
2022-09-10T12:55:59.684Z,97496.13
2022-09-10T12:59:15.862Z,97497.91
2022-09-10T13:01:47.845Z,97500.59
2022-09-10T13:04:33.454Z,97505.53
2022-09-10T13:07:37.069Z,97500.00
2022-09-10T13:10:26.320Z,97502.31
2022-09-10T13:13:00.343Z,97492.03
2022-09-10T13:15:37.799Z,97499.78
2022-09-10T13:18:34.498Z,97490.47
2022-09-10T13:21:31.466Z,97483.66
2022-09-10T13:23:59.320Z,97500.97
2022-09-10T13:26:31.153Z,97497.78
2022-09-10T13:29:03.632Z,97492.72
2022-09-10T13:31:36.469Z,97493.66
2022-09-10T13:34:29.428Z,97491.16
2022-09-10T13:37:31.705Z,97504.63
2022-09-10T13:41:04.770Z,97503.59
2022-09-10T13:44:06.936Z,97511.00
2022-09-10T13:46:47.385Z,97501.56
2022-09-10T13:49:41.197Z,97503.63
2022-09-10T13:52:16.285Z,97499.63
2022-09-10T13:54:51.618Z,97494.81
2022-09-10T13:57:42.585Z,97488.25
2022-09-10T14:00:23.957Z,97488.31
2022-09-10T14:02:58.685Z,97490.75
2022-09-10T14:05:48.841Z,97499.41
2022-09-10T14:08:22.020Z,97493.78
2022-09-10T14:11:01.622Z,97492.13
2022-09-10T14:14:16.787Z,97504.53
2022-09-10T14:16:49.196Z,97505.44
2022-09-10T14:19:27.640Z,97512.28
2022-09-10T14:21:57.791Z,97523.03
2022-09-10T14:24:37.621Z,97502.69
2022-09-10T14:27:32.442Z,97510.00
2022-09-10T14:30:20.924Z,97500.59
2022-09-10T14:32:49.384Z,97501.81
2022-09-10T14:35:38.249Z,97500.13
2022-09-10T14:38:24.640Z,97498.53
2022-09-10T14:41:08.057Z,97491.72
2022-09-10T14:43:39.156Z,97495.63
2022-09-10T14:46:10.176Z,97487.03
2022-09-10T14:49:01.493Z,97483.50
2022-09-10T14:51:29.262Z,97476.13
2022-09-10T14:53:58.900Z,97484.38
2022-09-10T14:56:38.062Z,97494.91
2022-09-10T14:59:32.234Z,97494.31
2022-09-10T15:02:01.604Z,97499.19
2022-09-10T15:04:30.400Z,97511.44
2022-09-10T15:07:00.549Z,97517.94
2022-09-10T15:09:29.844Z,97519.75
2022-09-10T15:12:20.026Z,97522.53
2022-09-10T15:14:47.788Z,97537.41
2022-09-10T15:17:17.747Z,97552.25
2022-09-10T15:19:49.954Z,97540.19
2022-09-10T15:22:24.781Z,97554.19
2022-09-10T15:25:10.772Z,97548.63
2022-09-10T15:27:39.368Z,97545.34
2022-09-10T15:30:07.911Z,97535.56
2022-09-10T15:32:35.709Z,97535.16
2022-09-10T15:35:04.377Z,97533.84
2022-09-10T15:37:32.268Z,97532.63
2022-09-10T15:40:00.109Z,97525.09
2022-09-10T15:42:27.916Z,97523.41
2022-09-10T15:44:55.648Z,97531.59
2022-09-10T15:47:24.183Z,97531.38
2022-09-10T15:49:52.822Z,97523.91
2022-09-10T15:52:20.544Z,97527.56
2022-09-10T15:54:48.312Z,97526.34
2022-09-10T15:57:16.056Z,97526.94
2022-09-10T15:59:43.806Z,97526.13
2022-09-10T16:02:14.564Z,97519.75
2022-09-10T16:04:43.165Z,97531.88
2022-09-10T16:07:11.183Z,97523.91
2022-09-10T16:09:38.887Z,97528.50
2022-09-10T16:12:06.894Z,97528.50
2022-09-10T16:14:34.857Z,97522.94
2022-09-10T16:17:10.280Z,97521.53
2022-09-10T16:19:38.289Z,97524.69
2022-09-10T16:22:06.554Z,97532.50
2022-09-10T16:24:34.344Z,97533.66
2022-09-10T16:27:03.456Z,97537.72
2022-09-10T16:29:32.639Z,97533.00
2022-09-10T16:32:00.387Z,97536.31
2022-09-10T16:34:28.196Z,97534.94
2022-09-10T16:36:55.998Z,97531.38
2022-09-10T16:39:23.786Z,97531.59
2022-09-10T16:41:51.548Z,97536.25
2022-09-10T16:44:19.391Z,97537.06
2022-09-10T16:46:47.622Z,97533.91
2022-09-10T16:49:18.452Z,97539.47
2022-09-10T16:51:49.076Z,97538.50
2022-09-10T16:54:20.029Z,97532.72
2022-09-10T16:56:49.233Z,97537.09
2022-09-10T16:59:21.406Z,97541.72
2022-09-10T17:01:51.789Z,97533.94
2022-09-10T17:04:28.231Z,97549.28
2022-09-10T17:06:57.938Z,97552.25
2022-09-10T17:09:25.982Z,97553.19
2022-09-10T17:11:54.248Z,97553.19
2022-09-10T17:14:22.288Z,97558.78
2022-09-10T17:16:50.118Z,97559.22
2022-09-10T17:19:23.690Z,97560.53
2022-09-10T17:21:55.645Z,97565.28
2022-09-10T17:24:26.215Z,97563.41
2022-09-10T17:26:57.747Z,97565.88
2022-09-10T17:29:26.310Z,97566.50
2022-09-10T17:31:57.499Z,97562.94
2022-09-10T17:34:26.581Z,97564.22
2022-09-10T17:36:54.506Z,97571.28
2022-09-10T17:39:22.251Z,97574.00
2022-09-10T17:41:50.226Z,97571.50
2022-09-10T17:44:18.150Z,97568.81
2022-09-10T17:46:46.458Z,97576.53
2022-09-10T17:49:16.708Z,97575.94
2022-09-10T17:51:44.791Z,97576.59
2022-09-10T17:54:13.443Z,97583.44
2022-09-10T17:56:41.941Z,97586.72
2022-09-10T17:59:14.365Z,97582.16
2022-09-10T18:01:43.117Z,97592.13
2022-09-10T18:04:15.744Z,97596.25
2022-09-10T18:06:46.811Z,97597.31
2022-09-10T18:09:17.446Z,97600.84
2022-09-10T18:11:45.356Z,97603.38
2022-09-10T18:14:19.485Z,97606.13
2022-09-10T18:16:47.343Z,97599.69
2022-09-10T18:19:17.191Z,97609.44
2022-09-10T18:21:46.850Z,97600.31
2022-09-10T18:24:24.263Z,97605.47
2022-09-10T18:26:54.665Z,97611.13
2022-09-10T18:29:26.880Z,97603.06
2022-09-10T18:31:57.558Z,97598.91
2022-09-10T18:34:28.764Z,97604.34
2022-09-10T18:37:00.276Z,97605.41
2022-09-10T18:39:31.387Z,97604.78
2022-09-10T18:42:03.516Z,97597.56
2022-09-10T18:44:34.190Z,97597.41
2022-09-10T18:47:02.470Z,97604.00
2022-09-10T18:49:30.267Z,97600.97
2022-09-10T18:51:58.141Z,97606.16
2022-09-10T18:54:29.742Z,97604.91
2022-09-10T18:56:58.237Z,97607.00
2022-09-10T18:59:26.733Z,97599.38
2022-09-10T19:01:56.017Z,97610.59
2022-09-10T19:04:28.268Z,97606.34
2022-09-10T19:06:57.727Z,97615.84
2022-09-10T19:09:29.269Z,97610.84
2022-09-10T19:12:00.330Z,97608.38
2022-09-10T19:14:31.474Z,97614.22
2022-09-10T19:17:00.822Z,97619.38
2022-09-10T19:19:32.021Z,97624.56
2022-09-10T19:22:03.602Z,97618.56
2022-09-10T19:24:53.325Z,97623.94
2022-09-10T19:27:20.597Z,97618.53
2022-09-10T19:29:49.854Z,97617.47
2022-09-10T19:32:19.921Z,97623.94
2022-09-10T19:34:51.981Z,97630.16
2022-09-10T19:37:20.913Z,97626.44
2022-09-10T19:39:49.099Z,97629.34
2022-09-10T19:42:17.391Z,97630.16
2022-09-10T19:44:45.178Z,97627.72
2022-09-10T19:47:12.927Z,97626.03
2022-09-10T19:49:40.841Z,97628.56
2022-09-10T19:52:11.130Z,97629.41
2022-09-10T19:54:38.992Z,97630.22
2022-09-10T19:57:07.520Z,97621.06
2022-09-10T19:59:35.659Z,97622.94
2022-09-10T20:02:03.689Z,97626.94
2022-09-10T20:04:33.059Z,97630.25
2022-09-10T20:07:01.408Z,97628.56
2022-09-10T20:09:29.147Z,97627.94
2022-09-10T20:11:56.898Z,97630.44
2022-09-10T20:14:25.458Z,97628.41
2022-09-10T20:16:53.438Z,97626.50
2022-09-10T20:19:22.116Z,97620.91
2022-09-10T20:21:50.218Z,97622.13
2022-09-10T20:24:17.930Z,97619.44
2022-09-10T20:26:46.722Z,97621.69
2022-09-10T20:29:19.352Z,97615.66
2022-09-10T20:31:48.522Z,97609.72
2022-09-10T20:34:20.627Z,97613.22
2022-09-10T20:36:53.621Z,97620.47
2022-09-10T20:39:25.318Z,97617.56
2022-09-10T20:41:53.592Z,97619.44
2022-09-10T20:44:21.378Z,97628.59
2022-09-10T20:46:49.163Z,97628.41
2022-09-10T20:49:17.444Z,97629.63
2022-09-10T20:51:45.697Z,97622.16
2022-09-10T20:54:18.849Z,97627.53
2022-09-10T20:56:46.891Z,97623.63
2022-09-10T20:59:16.977Z,97626.31
2022-09-10T21:01:46.997Z,97627.19
2022-09-10T21:04:15.237Z,97621.16
2022-09-10T21:06:43.408Z,97628.19
2022-09-10T21:09:12.565Z,97624.28
2022-09-10T21:11:40.575Z,97625.94
2022-09-10T21:14:09.414Z,97630.09
2022-09-10T21:16:40.153Z,97624.91
2022-09-10T21:19:15.173Z,97633.19
2022-09-10T21:21:48.896Z,97634.22
2022-09-10T21:24:22.622Z,97639.66
2022-09-10T21:26:50.482Z,97651.41
2022-09-10T21:29:22.348Z,97655.00
2022-09-10T21:31:54.843Z,97654.00
2022-09-10T21:34:23.098Z,97643.84
2022-09-10T21:36:51.432Z,97647.34
2022-09-10T21:39:19.269Z,97654.00
2022-09-10T21:41:50.493Z,97661.09
2022-09-10T21:44:25.030Z,97658.00
2022-09-10T21:46:53.411Z,97650.09
2022-09-10T21:49:21.273Z,97651.78
2022-09-10T21:51:49.179Z,97649.69
2022-09-10T21:54:20.896Z,97653.47
2022-09-10T21:56:50.443Z,97648.44
2022-09-10T21:59:19.454Z,97645.72
2022-09-10T22:01:47.997Z,97651.53
2022-09-10T22:04:22.202Z,97652.81
2022-09-10T22:06:50.662Z,97651.31
2022-09-10T22:09:19.901Z,97656.91
2022-09-10T22:11:51.867Z,97651.56
2022-09-10T22:14:22.656Z,97655.75
2022-09-10T22:16:52.094Z,97654.28
2022-09-10T22:19:24.165Z,97658.81
2022-09-10T22:21:54.340Z,97661.50
2022-09-10T22:24:22.355Z,97655.72
2022-09-10T22:26:50.398Z,97654.47
2022-09-10T22:29:19.853Z,97659.63
2022-09-10T22:31:48.551Z,97659.66
2022-09-10T22:34:17.880Z,97657.63
2022-09-10T22:36:47.567Z,97665.91
2022-09-10T22:39:20.594Z,97652.91
2022-09-10T22:41:51.171Z,97658.06
2022-09-10T22:44:20.140Z,97658.44
2022-09-10T22:46:48.279Z,97664.84
2022-09-10T22:49:16.665Z,97668.59
2022-09-10T22:51:44.792Z,97670.44
2022-09-10T22:54:12.594Z,97676.06
2022-09-10T22:56:42.062Z,97673.59
2022-09-10T22:59:14.012Z,97670.69
2022-09-10T23:01:46.024Z,97677.31
2022-09-10T23:04:14.071Z,97665.88
2022-09-10T23:06:42.100Z,97673.34
2022-09-10T23:09:17.516Z,97675.25
2022-09-10T23:11:45.817Z,97668.22
2022-09-10T23:14:19.189Z,97666.75
2022-09-10T23:16:49.577Z,97664.50
2022-09-10T23:19:23.330Z,97668.16
2022-09-10T23:21:54.305Z,97664.88
2022-09-10T23:24:24.712Z,97663.41
2022-09-10T23:26:53.904Z,97668.00
2022-09-10T23:29:23.205Z,97671.06
2022-09-10T23:31:54.624Z,97670.69
2022-09-10T23:34:23.056Z,97667.78
2022-09-10T23:36:52.068Z,97663.03
2022-09-10T23:39:23.470Z,97662.19
2022-09-10T23:41:55.379Z,97662.19
2022-09-10T23:44:24.281Z,97668.16
2022-09-10T23:46:53.597Z,97671.09
2022-09-10T23:49:23.974Z,97670.84
2022-09-10T23:51:52.178Z,97670.84
2022-09-10T23:54:19.919Z,97677.28
2022-09-10T23:56:47.678Z,97668.56
2022-09-10T23:59:15.466Z,97671.88
